This demonstration page uses our WeatherBlox Daily Observations layout. Learn more.

39.92423, -83.80882

Hourly Observations for August 5, 2017

Temp ( °F °C ) Dew Point ( °F °C ) Humidity (%) Winds ( mph kmh ) Pressure ( in mb ) Visibility ( mi km ) Precip ( " mm )
12:56 am 00:56 Clear 60 15.6 53 11.7 78 78 W 13 20 30.02 1017 10 16.0934 0 0
1:56 am 01:56 Clear 58 14.4 53 11.7 84 84 W 7 11 30.02 1017 10 16.0934 0 0
2:56 am 02:56 Clear 57 13.9 53 11.7 87 87 W 10 17 30.02 1017 10 16.0934 0 0
3:56 am 03:56 Clear 55 12.8 53 11.7 93 93 W 9 15 30.03 1017 10 16.0934 0 0
4:56 am 04:56 Clear 54 12.2 52 11.1 93 93 W 7 11 30.04 1017 10 16.0934 0 0
5:56 am 05:56 Clear 52 11.1 50 10 93 93 SW 5 7 30.07 1018 10 16.0934 0 0
6:56 am 06:56 Sunny 53 11.7 52 11.1 96 96 SW 7 11 30.09 1019 10 16.0934 0 0
7:56 am 07:56 Sunny 56 13.3 54 12.2 93 93 SW 7 11 30.1 1019 10 16.0934 0 0
8:56 am 08:56 Sunny 60 15.6 55 12.8 84 84 WSW 7 11 30.11 1020 10 16.0934 0 0
9:56 am 09:56 Sunny 64 17.8 56 13.3 75 75 WSW 8 13 30.11 1020 10 16.0934 0 0
10:56 am 10:56 Sunny 68 20 56 13.3 65 65 W 13 20 30.1 1019 10 16.0934 0 0
11:56 am 11:56 Sunny 71 21.7 57 13.9 61 61 WSW 8 13 30.1 1019 10 16.0934 0 0
12:56 pm 12:56 Sunny 73 22.8 57 13.9 57 57 W 14 22 30.1 1019 10 16.0934 0 0
1:56 pm 13:56 Sunny 75 23.9 59 15 58 58 SW 8 13 30.1 1019 10 16.0934 0 0
2:56 pm 14:56 Sunny 73 22.8 56 13.3 55 55 WSW 13 20 30.09 1019 10 16.0934 0 0
3:56 pm 15:56 Sunny 75 23.9 58 14.4 55 55 WSW 9 15 30.09 1019 10 16.0934 0 0
4:56 pm 16:56 Sunny 74 23.3 57 13.9 56 56 WNW 7 11 30.09 1019 10 16.0934 0 0
5:56 pm 17:56 Sunny 74 23.3 58 14.4 57 57 WSW 9 15 30.09 1019 10 16.0934 0 0
6:56 pm 18:56 Sunny 72 22.2 59 15 64 64 WSW 7 11 30.09 1019 10 16.0934 0 0
7:56 pm 19:56 Sunny 69 20.6 61 16.1 76 76 SW 3 6 30.09 1019 10 16.0934 0 0
8:56 pm 20:56 Clear 66 18.9 60 15.6 81 81 SW 5 7 30.09 1019 10 16.0934 0 0
9:56 pm 21:56 Clear 64 17.8 59 15 84 84 WSW 5 7 30.1 1019 10 16.0934 0 0
10:56 pm 22:56 Clear 63 17.2 58 14.4 84 84 SW 3 6 30.11 1020 10 16.0934 0 0
11:56 pm 23:56 Clear 61 16.1 58 14.4 90 90 Calm 30.09 1019 10 16.0934 0 0

Powered by AerisWeather